TimeCDT,TemperatureF,Dew PointF,Humidity,Sea Level PressureIn,VisibilityMPH,Wind Direction,Wind SpeedMPH,Gust SpeedMPH,PrecipitationIn,Events,Conditions,WindDirDegrees,DateUTC
12:55 AM,69.4,65.1,86,29.99,10.0,North,6.9,-,N/A,,Clear,360,2012-10-07 05:55:00
1:55 AM,68.2,65.1,90,29.99,8.0,North,5.8,-,N/A,,Clear,360,2012-10-07 06:55:00
2:55 AM,67.3,64.9,92,29.98,8.0,North,5.8,-,N/A,,Clear,360,2012-10-07 07:55:00
3:55 AM,66.4,64.2,93,29.98,8.0,North,8.1,-,N/A,,Clear,10,2012-10-07 08:55:00
4:55 AM,65.5,63.5,93,29.99,8.0,North,8.1,-,N/A,,Clear,360,2012-10-07 09:55:00
5:55 AM,64.0,61.9,93,30.00,8.0,North,8.1,-,N/A,,Partly Cloudy,360,2012-10-07 10:55:00
6:37 AM,62.6,60.8,94,30.01,6.0,North,8.1,-,N/A,,Scattered Clouds,350,2012-10-07 11:37:00
6:40 AM,62.6,60.8,94,30.01,6.0,North,8.1,-,N/A,,Mostly Cloudy,360,2012-10-07 11:40:00
6:50 AM,62.6,60.8,94,30.01,6.0,North,10.4,-,N/A,,Mostly Cloudy,350,2012-10-07 11:50:00
6:55 AM,63.0,61.2,94,30.01,6.0,North,9.2,-,N/A,,Overcast,350,2012-10-07 11:55:00
7:55 AM,63.9,61.2,91,30.03,6.0,North,11.5,-,N/A,,Mostly Cloudy,360,2012-10-07 12:55:00
8:10 AM,64.4,60.8,88,30.02,10.0,North,9.2,-,N/A,,Scattered Clouds,360,2012-10-07 13:10:00
8:41 AM,66.2,60.8,83,30.04,10.0,North,15.0,-,N/A,,Partly Cloudy,350,2012-10-07 13:41:00
8:55 AM,67.1,61.3,82,30.05,10.0,North,9.2,-,N/A,,Mostly Cloudy,350,2012-10-07 13:55:00
9:55 AM,67.3,61.2,81,30.06,10.0,North,13.8,-,N/A,,Mostly Cloudy,10,2012-10-07 14:55:00
10:12 AM,68.0,60.8,78,30.05,10.0,North,15.0,-,N/A,,Scattered Clouds,10,2012-10-07 15:12:00
10:55 AM,70.9,61.3,72,30.06,10.0,NNW,13.8,-,N/A,,Partly Cloudy,340,2012-10-07 15:55:00
11:55 AM,74.8,61.7,64,30.06,10.0,North,10.4,-,N/A,,Partly Cloudy,350,2012-10-07 16:55:00
12:56 PM,75.4,61.3,62,30.03,10.0,NNE,12.7,-,N/A,,Partly Cloudy,20,2012-10-07 17:56:00
1:55 PM,78.6,62.4,57,30.00,10.0,North,8.1,-,N/A,,Partly Cloudy,360,2012-10-07 18:55:00
2:55 PM,81.0,63.1,54,29.98,10.0,North,12.7,-,N/A,,Partly Cloudy,350,2012-10-07 19:55:00
3:55 PM,80.2,63.5,57,29.98,10.0,North,6.9,-,N/A,,Partly Cloudy,10,2012-10-07 20:55:00
4:56 PM,80.4,63.5,56,29.98,10.0,North,10.4,-,N/A,,Scattered Clouds,10,2012-10-07 21:56:00
5:55 PM,77.7,64.0,63,29.99,10.0,North,6.9,-,N/A,,Mostly Cloudy,350,2012-10-07 22:55:00
6:56 PM,73.6,64.0,72,30.01,10.0,NNW,8.1,-,N/A,,Mostly Cloudy,340,2012-10-07 23:56:00
7:57 PM,70.7,62.8,76,30.04,10.0,North,8.1,-,N/A,,Mostly Cloudy,360,2012-10-08 00:57:00
8:58 PM,67.8,60.8,78,30.06,10.0,North,10.4,-,N/A,,Scattered Clouds,350,2012-10-08 01:58:00
9:57 PM,65.5,58.6,79,30.06,10.0,North,11.5,-,N/A,,Partly Cloudy,350,2012-10-08 02:57:00
10:56 PM,63.7,56.8,78,30.06,10.0,North,10.4,-,N/A,,Clear,360,2012-10-08 03:56:00
11:55 PM,61.7,55.4,80,30.06,10.0,North,11.5,-,N/A,,Clear,360,2012-10-08 04:55:00